Time;durP1;ratioP1;P1;durP2;ratioP2;P2;SDS_P1;SDS_P2;PMS_P1;PMS_P2;Temp;Humidity;BMP_temperature;BMP_pressure;BME280_temperature;BME280_humidity;BME280_pressure;Samples;Min_cycle;Max_cycle;Signal;HPM_P1;HPM_P2
2022/09/30 00:01:44;;;;;;;11.15;9.25;;;6.50;99.90;;;;;;5033845;28;20057;-81
2022/09/30 00:04:14;;;;;;;16.52;12.48;;;6.40;99.90;;;;;;5047993;28;20076;-81
2022/09/30 00:06:40;;;;;;;16.60;12.50;;;6.50;99.90;;;;;;5035688;28;20049;-82
2022/09/30 00:09:07;;;;;;;17.77;13.15;;;6.50;99.90;;;;;;5024782;28;20090;-82
2022/09/30 00:11:34;;;;;;;17.23;12.73;;;6.50;99.90;;;;;;5032452;28;20521;-82
2022/09/30 00:14:01;;;;;;;17.08;13.38;;;6.50;99.90;;;;;;5049135;28;20147;-82
2022/09/30 00:16:32;;;;;;;15.10;12.20;;;6.50;99.90;;;;;;5020088;28;20071;-81
2022/09/30 00:18:59;;;;;;;14.18;10.75;;;6.60;99.90;;;;;;5033318;28;20048;-82
2022/09/30 00:21:25;;;;;;;17.05;12.45;;;6.50;99.90;;;;;;5042280;28;20138;-82
2022/09/30 00:23:51;;;;;;;16.02;12.10;;;6.50;99.90;;;;;;5013563;28;20606;-81
2022/09/30 00:26:20;;;;;;;11.05;9.82;;;6.50;99.90;;;;;;5007655;28;20117;-81
2022/09/30 00:28:49;;;;;;;9.65;8.63;;;6.30;99.90;;;;;;5024144;28;20063;-82
2022/09/30 00:31:18;;;;;;;6.88;5.30;;;6.30;99.90;;;;;;5050233;28;20493;-81
2022/09/30 00:34:05;;;;;;;7.80;6.35;;;6.30;99.90;;;;;;5039552;28;20048;-81
2022/09/30 00:36:30;;;;;;;13.23;10.30;;;6.30;99.90;;;;;;5081391;28;20479;-79
2022/09/30 00:38:56;;;;;;;15.80;11.30;;;6.30;99.90;;;;;;5070562;28;20039;-80
2022/09/30 00:41:21;;;;;;;12.10;9.82;;;6.20;99.90;;;;;;5034696;28;20497;-80
2022/09/30 00:43:52;;;;;;;12.88;10.20;;;6.20;99.90;;;;;;5071539;28;20048;-79
2022/09/30 00:46:39;;;;;;;13.75;9.98;;;6.10;99.90;;;;;;5050700;28;20520;-79
2022/09/30 00:49:16;;;;;;;13.57;10.10;;;6.10;99.90;;;;;;5075220;28;20048;-80
2022/09/30 00:51:46;;;;;;;15.05;10.70;;;6.10;99.90;;;;;;5068299;28;20489;-79
2022/09/30 00:54:18;;;;;;;12.98;10.88;;;6.00;99.90;;;;;;5059903;28;20059;-79
2022/09/30 00:56:49;;;;;;;12.57;10.63;;;6.00;99.90;;;;;;5050877;28;20096;-81
2022/09/30 00:59:16;;;;;;;14.18;11.65;;;6.00;99.90;;;;;;5057433;28;20052;-79
2022/09/30 01:01:42;;;;;;;21.27;13.70;;;5.90;99.90;;;;;;5048955;28;20089;-79
2022/09/30 01:04:21;;;;;;;13.18;10.65;;;5.90;99.90;;;;;;5044537;28;20080;-80
2022/09/30 01:06:47;;;;;;;20.70;13.55;;;5.90;99.90;;;;;;5045650;28;20044;-79
2022/09/30 01:09:13;;;;;;;13.38;10.00;;;6.00;99.90;;;;;;5051719;28;20115;-80
2022/09/30 01:11:39;;;;;;;11.20;9.52;;;6.00;99.90;;;;;;5046722;28;20085;-80
2022/09/30 01:14:13;;;;;;;7.95;6.60;;;5.90;99.90;;;;;;5065105;28;20126;-81
2022/09/30 01:16:57;;;;;;;9.88;7.65;;;6.00;99.90;;;;;;5052482;28;20036;-82
2022/09/30 01:20:02;;;;;;;10.30;8.48;;;5.90;99.90;;;;;;5050921;28;20043;-82
2022/09/30 01:22:51;;;;;;;9.77;7.30;;;5.90;99.90;;;;;;5066877;28;20056;-82
2022/09/30 01:25:39;;;;;;;10.85;8.75;;;5.80;99.90;;;;;;5071994;28;20048;-82
2022/09/30 01:28:29;;;;;;;14.23;10.02;;;5.80;99.90;;;;;;5055404;28;20105;-82
2022/09/30 01:31:06;;;;;;;10.68;8.65;;;5.80;99.90;;;;;;5050436;28;20094;-81
2022/09/30 01:34:20;;;;;;;10.95;7.97;;;5.80;99.90;;;;;;5056350;28;20157;-80
2022/09/30 01:36:58;;;;;;;12.18;8.35;;;5.60;99.90;;;;;;5061238;28;21314;-81
2022/09/30 01:39:47;;;;;;;12.27;9.23;;;5.60;99.90;;;;;;5055560;28;20037;-80
2022/09/30 01:42:27;;;;;;;11.30;8.27;;;5.60;99.90;;;;;;5070898;28;20068;-81
2022/09/30 01:45:02;;;;;;;13.85;8.32;;;5.50;99.90;;;;;;5074957;28;20044;-81
2022/09/30 01:47:41;;;;;;;10.25;7.95;;;5.60;99.90;;;;;;5054487;28;20126;-81
2022/09/30 01:50:52;;;;;;;16.55;10.27;;;5.50;99.90;;;;;;5072266;28;20051;-82
2022/09/30 01:53:28;;;;;;;17.63;10.70;;;5.50;99.90;;;;;;5069587;28;20056;-81
2022/09/30 01:55:59;;;;;;;;;;;5.50;99.90;;;;;;5071207;28;20040;-81
2022/09/30 01:58:55;;;;;;;18.58;11.63;;;5.60;99.90;;;;;;5062232;28;19930;-81
2022/09/30 02:01:30;;;;;;;16.27;11.70;;;5.50;99.90;;;;;;5071862;28;20040;-81
2022/09/30 02:04:02;;;;;;;17.38;11.85;;;5.60;99.90;;;;;;5054116;28;20053;-82
2022/09/30 02:06:34;;;;;;;25.25;14.10;;;5.60;99.90;;;;;;5073776;28;20072;-82
2022/09/30 02:09:13;;;;;;;16.75;11.32;;;5.60;99.90;;;;;;5073607;28;20078;-81
2022/09/30 02:11:41;;;;;;;13.00;9.70;;;5.60;99.90;;;;;;5054561;28;20463;-82
2022/09/30 02:14:11;;;;;;;13.13;9.70;;;5.50;99.90;;;;;;5041824;28;20078;-82
2022/09/30 02:16:44;;;;;;;13.75;9.15;;;5.40;99.90;;;;;;5071016;28;20044;-81
2022/09/30 02:19:17;;;;;;;11.23;9.48;;;5.50;99.90;;;;;;5075218;28;20105;-82
2022/09/30 02:21:47;;;;;;;16.77;11.32;;;5.40;99.90;;;;;;5053881;28;20104;-81
2022/09/30 02:24:17;;;;;;;22.83;13.43;;;5.40;99.90;;;;;;5073675;28;20486;-83
2022/09/30 02:26:45;;;;;;;21.70;14.02;;;5.40;99.90;;;;;;5073749;28;20100;-81
2022/09/30 02:29:26;;;;;;;23.30;13.63;;;5.60;99.90;;;;;;5049921;28;20420;-82
2022/09/30 02:31:55;;;;;;;18.00;11.80;;;5.60;99.90;;;;;;5070297;28;20044;-82
2022/09/30 02:34:32;;;;;;;24.08;14.25;;;5.70;99.90;;;;;;5059803;28;20045;-82
2022/09/30 02:37:15;;;;;;;24.58;14.43;;;5.60;99.90;;;;;;5035534;28;20045;-80
2022/09/30 02:39:59;;;;;;;26.55;15.10;;;5.60;99.90;;;;;;5051530;28;20044;-80
2022/09/30 02:42:27;;;;;;;34.20;16.52;;;5.70;99.90;;;;;;5061647;28;20051;-79
2022/09/30 02:45:02;;;;;;;27.25;16.50;;;5.80;99.90;;;;;;5070406;28;20051;-80
2022/09/30 02:47:38;;;;;;;33.65;18.05;;;5.80;99.90;;;;;;5050811;28;20052;-80
2022/09/30 02:50:18;;;;;;;39.05;17.25;;;5.90;99.90;;;;;;5060095;28;20048;-80
2022/09/30 02:53:18;;;;;;;32.85;17.33;;;5.90;99.90;;;;;;5059603;28;20052;-80
2022/09/30 02:55:59;;;;;;;31.23;16.73;;;5.90;99.90;;;;;;5064826;28;20057;-79
2022/09/30 02:58:25;;;;;;;32.22;17.92;;;6.00;99.90;;;;;;5042563;28;20489;-79
2022/09/30 03:00:53;;;;;;;33.83;17.95;;;5.90;99.90;;;;;;5023612;28;20554;-79
2022/09/30 03:03:21;;;;;;;36.20;18.52;;;5.90;99.90;;;;;;5052489;28;20097;-81
2022/09/30 03:05:48;;;;;;;23.95;15.98;;;5.90;99.90;;;;;;5058276;28;20375;-79
2022/09/30 03:08:14;;;;;;;31.45;16.70;;;5.90;99.90;;;;;;5051443;28;20060;-79
2022/09/30 03:10:41;;;;;;;27.52;15.60;;;5.90;99.90;;;;;;5039776;28;20037;-80
2022/09/30 03:13:24;;;;;;;31.25;16.75;;;5.90;99.90;;;;;;5049236;28;20087;-79
2022/09/30 03:16:08;;;;;;;32.67;17.35;;;5.80;99.90;;;;;;5062439;28;20052;-79
2022/09/30 03:18:46;;;;;;;35.17;18.00;;;5.80;99.90;;;;;;5064430;28;20041;-79
2022/09/30 03:21:49;;;;;;;31.58;18.10;;;5.80;99.90;;;;;;5065257;28;20131;-80
2022/09/30 03:24:45;;;;;;;20.75;13.43;;;5.80;99.90;;;;;;5052663;28;20056;-82
2022/09/30 03:27:41;;;;;;;18.05;11.93;;;5.80;99.90;;;;;;5045247;28;20105;-82
2022/09/30 03:30:14;;;;;;;27.75;10.40;;;5.70;99.90;;;;;;5053298;28;20665;-81
2022/09/30 03:33:02;;;;;;;13.80;9.18;;;5.70;99.90;;;;;;5045646;28;20053;-81
2022/09/30 03:36:00;;;;;;;21.02;11.88;;;5.50;99.90;;;;;;5038498;28;20487;-81
2022/09/30 03:38:54;;;;;;;26.38;13.43;;;5.50;99.90;;;;;;5064196;28;20063;-82
2022/09/30 03:41:51;;;;;;;14.23;10.52;;;5.40;99.90;;;;;;5065279;28;20991;-81
2022/09/30 03:44:32;;;;;;;16.88;8.85;;;5.30;99.90;;;;;;5068389;28;20067;-81
2022/09/30 03:47:04;;;;;;;23.98;9.90;;;5.30;99.90;;;;;;5051740;28;20041;-81
2022/09/30 03:49:34;;;;;;;17.38;10.70;;;5.30;99.90;;;;;;5067099;28;20083;-81
2022/09/30 03:52:05;;;;;;;18.70;10.55;;;5.30;99.90;;;;;;5052858;28;20151;-81
2022/09/30 03:54:32;;;;;;;20.92;11.98;;;5.20;99.90;;;;;;5050920;28;20085;-81
2022/09/30 03:57:02;;;;;;;22.50;11.77;;;5.20;99.90;;;;;;5053448;28;20045;-81
2022/09/30 03:59:28;;;;;;;29.75;12.75;;;5.20;99.90;;;;;;5051350;28;20120;-81
2022/09/30 04:01:55;;;;;;;24.33;12.23;;;5.20;99.90;;;;;;5035397;28;20483;-82
2022/09/30 04:04:21;;;;;;;21.67;12.07;;;5.00;99.90;;;;;;5035925;28;20052;-81
2022/09/30 04:06:47;;;;;;;25.05;12.30;;;5.20;99.90;;;;;;5055835;28;20073;-81
2022/09/30 04:09:13;;;;;;;81.10;16.25;;;5.30;99.90;;;;;;5044056;28;20418;-81
2022/09/30 04:11:39;;;;;;;103.25;17.08;;;5.20;99.90;;;;;;5041676;28;20052;-81
2022/09/30 04:14:05;;;;;;;155.45;21.73;;;5.20;99.90;;;;;;5050681;28;20049;-81
2022/09/30 04:16:31;;;;;;;90.20;17.13;;;5.20;99.90;;;;;;5050680;28;20055;-82
2022/09/30 04:18:58;;;;;;;63.38;12.95;;;5.20;99.90;;;;;;5069209;28;20511;-81
2022/09/30 04:21:24;;;;;;;46.88;13.30;;;5.30;99.90;;;;;;5051249;28;20036;-82
2022/09/30 04:23:50;;;;;;;29.67;11.23;;;5.20;99.90;;;;;;5042520;28;20057;-82
2022/09/30 04:26:18;;;;;;;47.17;12.95;;;5.20;99.90;;;;;;5049122;28;20075;-81
2022/09/30 04:28:45;;;;;;;90.93;16.17;;;5.10;99.90;;;;;;5043914;28;20055;-81
2022/09/30 04:31:12;;;;;;;43.33;13.18;;;5.10;99.90;;;;;;5064924;28;20063;-81
2022/09/30 04:33:38;;;;;;;86.97;18.02;;;5.10;99.90;;;;;;5051830;28;20512;-81
2022/09/30 04:36:05;;;;;;;35.63;13.55;;;5.20;99.90;;;;;;5045120;28;20059;-81
2022/09/30 04:38:32;;;;;;;37.20;11.93;;;5.10;99.90;;;;;;5052560;28;20478;-82
2022/09/30 04:41:02;;;;;;;28.77;12.57;;;5.00;99.90;;;;;;5021437;28;20041;-81
2022/09/30 04:43:28;;;;;;;19.98;10.63;;;5.00;99.90;;;;;;5059101;28;20493;-82
2022/09/30 04:45:54;;;;;;;13.75;9.45;;;4.90;99.90;;;;;;5048162;28;20346;-82
2022/09/30 04:48:23;;;;;;;16.50;9.57;;;5.00;99.90;;;;;;5052896;28;20573;-81
2022/09/30 04:50:49;;;;;;;18.90;11.90;;;5.00;99.90;;;;;;5038768;28;20493;-82
2022/09/30 04:53:16;;;;;;;24.42;10.07;;;4.90;99.90;;;;;;5040900;28;20289;-80
2022/09/30 04:55:43;;;;;;;17.50;10.95;;;4.90;99.90;;;;;;5051678;28;20504;-81
2022/09/30 04:58:09;;;;;;;11.25;8.85;;;4.90;99.90;;;;;;5048084;28;20141;-81
2022/09/30 05:00:35;;;;;;;19.27;9.63;;;4.80;99.90;;;;;;5047007;28;20083;-82
2022/09/30 05:03:02;;;;;;;18.55;9.48;;;4.80;99.90;;;;;;5042036;28;20040;-81
2022/09/30 05:05:27;;;;;;;18.98;9.68;;;4.80;99.90;;;;;;5053070;28;20051;-80
2022/09/30 05:07:59;;;;;;;11.63;8.48;;;4.80;99.90;;;;;;5038067;28;20040;-80
2022/09/30 05:10:25;;;;;;;23.00;11.35;;;4.80;99.90;;;;;;5049996;28;20049;-80
2022/09/30 05:12:52;;;;;;;64.85;12.93;;;4.90;99.90;;;;;;5018532;28;20044;-81
2022/09/30 05:15:18;;;;;;;72.05;12.32;;;4.90;99.90;;;;;;5054564;28;20052;-81
2022/09/30 05:17:43;;;;;;;70.65;12.65;;;4.80;99.90;;;;;;5051420;28;20062;-81
2022/09/30 05:20:10;;;;;;;88.90;15.52;;;4.80;99.90;;;;;;5018548;28;20072;-81
2022/09/30 05:22:37;;;;;;;62.95;14.98;;;4.70;99.90;;;;;;5018922;28;20049;-81
2022/09/30 05:25:03;;;;;;;86.88;17.52;;;4.70;99.90;;;;;;5032852;28;20039;-82
2022/09/30 05:27:29;;;;;;;50.58;15.25;;;4.70;99.90;;;;;;5046799;28;20048;-81
2022/09/30 05:29:54;;;;;;;48.55;16.65;;;4.60;99.90;;;;;;5033658;28;20561;-82
2022/09/30 05:32:21;;;;;;;84.22;19.30;;;4.60;99.90;;;;;;5034093;28;20048;-83
2022/09/30 05:34:48;;;;;;;35.20;15.13;;;4.60;99.90;;;;;;5067233;28;20447;-81
2022/09/30 05:37:13;;;;;;;26.83;13.80;;;4.50;99.90;;;;;;5019540;28;20040;-82
2022/09/30 05:39:39;;;;;;;79.60;19.73;;;4.50;99.90;;;;;;5067969;28;20548;-83
2022/09/30 05:42:05;;;;;;;72.10;17.52;;;4.50;99.90;;;;;;5018690;28;20139;-79
2022/09/30 05:44:30;;;;;;;76.80;17.45;;;4.50;99.90;;;;;;5070911;28;20519;-81
2022/09/30 05:46:57;;;;;;;98.32;21.00;;;4.50;99.90;;;;;;5050622;28;20459;-81
2022/09/30 05:49:24;;;;;;;55.28;17.33;;;4.50;99.90;;;;;;5022376;28;20561;-82
2022/09/30 05:51:50;;;;;;;55.65;17.42;;;4.50;99.90;;;;;;5062773;28;20044;-83
2022/09/30 05:54:16;;;;;;;79.75;22.00;;;4.50;99.90;;;;;;5069368;28;20090;-82
2022/09/30 05:56:41;;;;;;;71.43;21.05;;;4.80;99.90;;;;;;5053810;28;20118;-82
2022/09/30 05:59:07;;;;;;;95.07;23.98;;;4.60;99.90;;;;;;5043767;28;20039;-81
2022/09/30 06:01:33;;;;;;;52.97;19.35;;;4.70;99.90;;;;;;5046231;28;20722;-80
2022/09/30 06:03:59;;;;;;;73.43;21.45;;;4.70;99.90;;;;;;5053172;28;20059;-82
2022/09/30 06:06:25;;;;;;;52.03;19.80;;;4.70;99.90;;;;;;5043629;28;20509;-82
2022/09/30 06:08:51;;;;;;;54.05;23.23;;;4.60;99.90;;;;;;5049716;28;20040;-78
2022/09/30 06:11:19;;;;;;;39.10;21.33;;;4.70;99.90;;;;;;5037092;28;20443;-79
2022/09/30 06:13:46;;;;;;;60.63;24.92;;;4.70;99.90;;;;;;5063325;28;20079;-80
2022/09/30 06:16:13;;;;;;;73.45;24.30;;;4.70;99.90;;;;;;5026997;28;20075;-79
2022/09/30 06:18:42;;;;;;;36.80;20.50;;;4.70;99.90;;;;;;5039771;28;20189;-80
2022/09/30 06:21:13;;;;;;;36.25;20.13;;;4.70;99.90;;;;;;5047350;28;20051;-79
2022/09/30 06:23:39;;;;;;;44.15;19.92;;;4.80;99.90;;;;;;5044554;28;20047;-81
2022/09/30 06:26:07;;;;;;;57.42;25.15;;;4.80;99.90;;;;;;5049603;28;20052;-82
2022/09/30 06:28:34;;;;;;;31.27;19.02;;;4.90;99.90;;;;;;5047311;28;20694;-79
2022/09/30 06:31:03;;;;;;;67.53;26.55;;;4.90;99.90;;;;;;5051777;28;20134;-78
2022/09/30 06:33:30;;;;;;;70.22;30.10;;;4.90;99.90;;;;;;5062701;28;20155;-78
2022/09/30 06:35:56;;;;;;;62.30;26.38;;;5.10;99.90;;;;;;5052616;28;20059;-78
2022/09/30 06:38:22;;;;;;;46.15;25.75;;;5.00;99.90;;;;;;5061948;28;20051;-79
2022/09/30 06:40:49;;;;;;;38.70;24.23;;;5.00;99.90;;;;;;5046289;28;20063;-82
2022/09/30 06:43:18;;;;;;;39.92;24.45;;;5.00;99.90;;;;;;5057416;28;20052;-79
2022/09/30 06:45:50;;;;;;;37.15;23.63;;;5.00;99.90;;;;;;5053244;28;20048;-79
2022/09/30 06:48:16;;;;;;;34.13;23.90;;;5.10;99.90;;;;;;5041039;28;20194;-80
2022/09/30 06:50:46;;;;;;;43.97;25.90;;;5.20;99.90;;;;;;5054755;28;20048;-79
2022/09/30 06:53:12;;;;;;;45.92;27.00;;;5.20;99.90;;;;;;5041146;28;20048;-79
2022/09/30 06:55:39;;;;;;;39.47;25.85;;;5.20;99.90;;;;;;5055027;28;20048;-79
2022/09/30 06:58:10;;;;;;;49.50;27.45;;;5.30;99.90;;;;;;5036105;28;20040;-80
2022/09/30 07:00:36;;;;;;;52.15;29.60;;;5.30;99.90;;;;;;5055126;28;20052;-81
2022/09/30 07:03:04;;;;;;;55.42;31.65;;;5.50;99.90;;;;;;5045062;28;20052;-79
2022/09/30 07:05:31;;;;;;;75.95;34.78;;;5.60;99.90;;;;;;5053360;28;20174;-78
2022/09/30 07:07:57;;;;;;;52.70;31.48;;;5.80;99.90;;;;;;5033554;28;20404;-79
2022/09/30 07:10:23;;;;;;;60.15;33.47;;;5.80;99.90;;;;;;5012624;28;20060;-80
2022/09/30 07:12:50;;;;;;;62.67;34.35;;;5.90;99.90;;;;;;5042628;28;20107;-81
2022/09/30 07:15:18;;;;;;;57.35;32.53;;;6.20;99.90;;;;;;5050316;28;20044;-80
2022/09/30 07:17:49;;;;;;;64.03;35.15;;;6.20;99.90;;;;;;5050659;28;20044;-79
2022/09/30 07:20:14;;;;;;;79.22;39.20;;;6.20;99.90;;;;;;5055865;28;20130;-78
2022/09/30 07:22:41;;;;;;;61.50;34.90;;;6.30;99.90;;;;;;5055501;28;20135;-80
2022/09/30 07:25:08;;;;;;;83.88;41.75;;;6.40;99.90;;;;;;5039016;28;20091;-79
2022/09/30 07:27:34;;;;;;;61.30;34.20;;;6.50;99.90;;;;;;5037179;28;20397;-80
2022/09/30 07:30:01;;;;;;;78.00;39.55;;;6.70;99.90;;;;;;5035688;28;20048;-78
2022/09/30 07:32:26;;;;;;;73.18;38.28;;;6.90;99.90;;;;;;5023895;28;20056;-79
2022/09/30 07:34:52;;;;;;;67.38;37.95;;;6.80;99.90;;;;;;5025034;28;20043;-81
2022/09/30 07:37:18;;;;;;;82.68;43.25;;;6.90;99.90;;;;;;5044336;28;20068;-79
2022/09/30 07:39:47;;;;;;;83.63;43.17;;;7.10;99.90;;;;;;5053362;28;20243;-81
2022/09/30 07:42:21;;;;;;;92.20;45.92;;;7.10;99.90;;;;;;5050497;28;20112;-80
2022/09/30 07:44:49;;;;;;;106.05;48.63;;;7.30;99.90;;;;;;5056430;28;20048;-80
2022/09/30 07:47:15;;;;;;;115.97;49.13;;;7.70;99.90;;;;;;5055155;28;20643;-79
2022/09/30 07:49:43;;;;;;;245.52;58.13;;;8.10;99.90;;;;;;5035212;28;20036;-82
2022/09/30 07:52:11;;;;;;;196.55;53.30;;;8.30;99.90;;;;;;5061854;28;20053;-81
2022/09/30 07:54:38;;;;;;;312.27;62.05;;;8.50;99.90;;;;;;5015202;28;20485;-81
2022/09/30 07:57:04;;;;;;;237.60;53.45;;;8.60;99.90;;;;;;5042587;28;22088;-81
2022/09/30 07:59:33;;;;;;;232.20;54.60;;;8.90;99.90;;;;;;5022557;28;20690;-83
2022/09/30 08:02:00;;;;;;;186.00;50.10;;;8.80;99.90;;;;;;5033497;28;20148;-83
2022/09/30 08:04:26;;;;;;;97.32;39.25;;;9.00;99.90;;;;;;5056795;28;20052;-82
2022/09/30 08:06:55;;;;;;;307.85;55.65;;;9.10;99.90;;;;;;5028798;28;20096;-81
2022/09/30 08:09:23;;;;;;;279.80;52.85;;;9.20;99.90;;;;;;5072015;28;20044;-82
2022/09/30 08:11:49;;;;;;;199.43;45.38;;;9.30;99.90;;;;;;5061819;28;20040;-82
2022/09/30 08:14:25;;;;;;;134.98;36.78;;;9.30;99.90;;;;;;5063572;28;20055;-81
2022/09/30 08:16:52;;;;;;;201.50;41.78;;;9.40;99.90;;;;;;5055944;28;20504;-82
2022/09/30 08:19:20;;;;;;;224.30;40.85;;;9.50;99.90;;;;;;5039837;28;20072;-82
2022/09/30 08:21:48;;;;;;;183.15;38.22;;;9.60;99.90;;;;;;5040559;28;20078;-82
2022/09/30 08:24:15;;;;;;;249.60;42.05;;;9.80;99.90;;;;;;5036241;28;20048;-82
2022/09/30 08:26:41;;;;;;;185.40;36.08;;;9.90;99.90;;;;;;5071816;28;20054;-82
2022/09/30 08:29:10;;;;;;;189.10;38.50;;;9.90;99.90;;;;;;5066532;28;20052;-82
2022/09/30 08:31:36;;;;;;;152.38;35.20;;;9.80;99.90;;;;;;5035367;28;20052;-81
2022/09/30 08:34:02;;;;;;;171.43;40.65;;;10.10;99.90;;;;;;5023879;28;20040;-84
2022/09/30 08:36:28;;;;;;;219.93;42.72;;;10.30;99.90;;;;;;5023603;28;20040;-82
2022/09/30 08:38:54;;;;;;;72.82;30.13;;;10.50;99.90;;;;;;5043591;28;20036;-81
2022/09/30 08:41:38;;;;;;;219.25;38.33;;;10.60;99.90;;;;;;5018160;28;20059;-84
2022/09/30 08:44:09;;;;;;;154.43;36.63;;;10.80;99.90;;;;;;5053807;28;20067;-84
2022/09/30 08:46:41;;;;;;;121.43;33.38;;;10.90;99.90;;;;;;5039460;28;20056;-82
2022/09/30 08:49:15;;;;;;;49.47;24.60;;;10.90;99.90;;;;;;5039090;28;20036;-81
2022/09/30 08:51:45;;;;;;;64.53;26.63;;;11.10;99.90;;;;;;5038670;28;20497;-83
2022/09/30 08:54:16;;;;;;;74.35;29.42;;;11.20;99.90;;;;;;5049329;28;20048;-82
2022/09/30 08:56:43;;;;;;;55.38;25.33;;;11.40;99.90;;;;;;5051540;28;20044;-82
2022/09/30 08:59:41;;;;;;;39.97;22.17;;;11.50;99.90;;;;;;5021745;28;20054;-82
2022/09/30 09:02:16;;;;;;;64.65;26.20;;;11.70;99.90;;;;;;5034590;28;20040;-81
2022/09/30 09:04:42;;;;;;;55.50;24.52;;;11.80;99.90;;;;;;5040596;28;20152;-82
2022/09/30 09:07:44;;;;;;;45.63;24.67;;;11.90;99.90;;;;;;5027283;28;20083;-81
2022/09/30 09:10:28;;;;;;;51.58;23.60;;;11.80;99.90;;;;;;5056963;28;20060;-82
2022/09/30 09:13:01;;;;;;;41.90;23.77;;;11.80;99.90;;;;;;5032585;28;20052;-82
2022/09/30 09:15:44;;;;;;;42.53;23.40;;;11.90;99.90;;;;;;5033518;28;20105;-82
2022/09/30 09:18:30;;;;;;;40.78;22.70;;;12.00;99.90;;;;;;5050806;28;20474;-81
2022/09/30 09:20:58;;;;;;;35.67;21.80;;;12.20;99.90;;;;;;5054006;28;20147;-83
2022/09/30 09:23:25;;;;;;;30.50;19.25;;;12.30;99.90;;;;;;5043304;28;20051;-80
2022/09/30 09:25:54;;;;;;;27.98;17.98;;;12.40;99.90;;;;;;5033156;28;20055;-81
2022/09/30 09:28:57;;;;;;;31.42;19.17;;;12.30;99.90;;;;;;5049077;28;20815;-79
2022/09/30 09:31:25;;;;;;;24.45;18.08;;;12.20;99.90;;;;;;5045994;28;20131;-79
2022/09/30 09:33:51;;;;;;;28.58;17.48;;;12.20;99.90;;;;;;5067554;28;20478;-80
2022/09/30 09:36:37;;;;;;;27.65;18.42;;;12.20;99.90;;;;;;5035666;28;20516;-80
2022/09/30 09:39:21;;;;;;;21.48;17.05;;;12.40;99.90;;;;;;5048285;28;20494;-79
2022/09/30 09:42:11;;;;;;;25.95;16.23;;;12.50;99.90;;;;;;5046590;28;20465;-80
2022/09/30 09:45:11;;;;;;;21.67;15.40;;;12.70;99.90;;;;;;5070252;28;20122;-80
2022/09/30 09:47:37;;;;;;;14.13;11.18;;;12.80;99.90;;;;;;5042058;28;20052;-81
2022/09/30 09:50:12;;;;;;;16.55;11.40;;;13.00;99.90;;;;;;5037968;28;20055;-82
2022/09/30 09:53:03;;;;;;;14.02;10.00;;;13.30;99.90;;;;;;5070018;28;20063;-80
2022/09/30 09:55:29;;;;;;;12.23;9.98;;;13.40;99.90;;;;;;5073420;28;20127;-80
2022/09/30 09:58:08;;;;;;;12.30;9.20;;;13.60;99.90;;;;;;5056866;28;20571;-79
2022/09/30 10:03:20;;;;;;;7.03;6.28;;;14.00;99.90;;;;;;5072712;28;20070;-83
2022/09/30 10:06:03;;;;;;;7.97;5.82;;;14.20;99.90;;;;;;5056695;28;20093;-80
2022/09/30 10:08:32;;;;;;;7.07;5.78;;;14.40;99.90;;;;;;5071139;28;20044;-80
2022/09/30 10:11:02;;;;;;;6.18;4.93;;;14.50;99.90;;;;;;5050138;28;20048;-79
2022/09/30 10:13:37;;;;;;;4.75;4.25;;;14.60;99.90;;;;;;5056495;28;20119;-79
2022/09/30 10:16:03;;;;;;;5.60;4.68;;;14.90;99.90;;;;;;5069482;28;20481;-79
2022/09/30 10:18:33;;;;;;;4.35;3.90;;;15.20;99.90;;;;;;5012301;28;20567;-80
2022/09/30 10:21:17;;;;;;;4.13;3.72;;;15.40;99.90;;;;;;5066757;28;20040;-81
2022/09/30 10:23:43;;;;;;;5.25;3.80;;;15.60;99.90;;;;;;5055397;28;20439;-80
2022/09/30 10:26:26;;;;;;;4.38;3.70;;;15.70;99.90;;;;;;5055094;28;20041;-80
2022/09/30 10:28:58;;;;;;;2.65;2.45;;;15.60;99.90;;;;;;5066981;28;20054;-79
2022/09/30 10:31:28;;;;;;;3.33;2.25;;;15.60;99.90;;;;;;5054661;28;20048;-79
2022/09/30 10:34:08;;;;;;;2.05;1.73;;;15.70;99.90;;;;;;5072200;28;20043;-80
2022/09/30 10:36:37;;;;;;;2.03;1.83;;;15.90;99.90;;;;;;5072260;28;20050;-79
2022/09/30 10:39:07;;;;;;;1.67;1.58;;;16.10;99.90;;;;;;5057365;28;20036;-80
2022/09/30 10:41:35;;;;;;;3.22;1.52;;;16.10;99.90;;;;;;5066787;28;20044;-78
2022/09/30 10:44:14;;;;;;;1.67;1.58;;;16.00;99.90;;;;;;5079788;28;20044;-79
2022/09/30 10:46:43;;;;;;;2.03;1.83;;;16.10;99.90;;;;;;5062836;28;20047;-82
2022/09/30 10:49:41;;;;;;;3.15;2.40;;;16.20;99.90;;;;;;5055910;28;20048;-79
2022/09/30 10:52:21;;;;;;;2.95;2.20;;;16.30;99.90;;;;;;5072018;28;20056;-77
2022/09/30 10:54:50;;;;;;;2.78;2.50;;;16.50;99.90;;;;;;5061802;28;20040;-77
2022/09/30 10:57:24;;;;;;;3.85;2.72;;;16.60;99.90;;;;;;5050435;28;20051;-78
2022/09/30 11:00:08;;;;;;;4.55;2.90;;;16.80;99.90;;;;;;5057758;28;20861;-77
2022/09/30 11:02:37;;;;;;;3.25;2.97;;;17.00;99.90;;;;;;5071108;28;20055;-77
2022/09/30 11:05:21;;;;;;;3.22;2.92;;;16.90;99.90;;;;;;5061466;28;20049;-77
2022/09/30 11:08:01;;;;;;;3.10;2.80;;;17.00;99.90;;;;;;5047089;28;20079;-76
2022/09/30 11:10:44;;;;;;;3.78;3.25;;;17.20;99.90;;;;;;5051254;28;20044;-77
2022/09/30 11:13:30;;;;;;;5.57;3.85;;;17.50;99.90;;;;;;5050224;28;20049;-77
2022/09/30 11:16:02;;;;;;;5.23;3.80;;;18.10;99.90;;;;;;5064200;28;20052;-78
2022/09/30 11:18:43;;;;;;;4.07;3.47;;;18.40;99.90;;;;;;5057947;28;20390;-78
2022/09/30 11:21:40;;;;;;;3.38;3.08;;;18.50;99.90;;;;;;5059283;28;20123;-78
2022/09/30 11:24:27;;;;;;;4.13;3.70;;;18.80;99.90;;;;;;5045544;28;20147;-79
2022/09/30 11:27:31;;;;;;;3.83;3.50;;;19.60;99.90;;;;;;5062396;28;20059;-79
2022/09/30 11:30:16;;;;;;;3.92;3.03;;;20.50;99.90;;;;;;5001219;28;20509;-79
2022/09/30 11:32:56;;;;;;;5.13;3.42;;;20.90;99.90;;;;;;5006809;28;20060;-78
2022/09/30 11:35:28;;;;;;;4.15;2.63;;;21.60;99.90;;;;;;5053118;28;20048;-78
2022/09/30 11:38:18;;;;;;;3.90;2.70;;;22.60;99.10;;;;;;5070303;28;20047;-78
2022/09/30 11:41:10;;;;;;;3.35;2.58;;;23.50;80.50;;;;;;5055654;28;20044;-78
2022/09/30 11:43:51;;;;;;;6.18;4.20;;;23.10;85.60;;;;;;5066719;28;20080;-79
2022/09/30 11:46:23;;;;;;;2.60;2.03;;;21.80;92.40;;;;;;5061320;28;20131;-79
2022/09/30 11:48:59;;;;;;;8.57;4.80;;;21.60;88.20;;;;;;5054440;28;20035;-79
2022/09/30 11:51:41;;;;;;;4.82;3.38;;;21.80;91.80;;;;;;5051578;28;20055;-79
2022/09/30 11:54:28;;;;;;;2.75;2.33;;;22.90;84.40;;;;;;5066209;28;20067;-79
2022/09/30 11:57:03;;;;;;;2.25;1.95;;;23.60;67.00;;;;;;5070550;28;20048;-80
2022/09/30 11:59:40;;;;;;;2.78;1.60;;;23.20;67.40;;;;;;5052641;28;20044;-82
2022/09/30 12:02:32;;;;;;;2.30;1.75;;;23.80;71.30;;;;;;5053480;28;20052;-80
2022/09/30 12:05:10;;;;;;;2.67;2.10;;;24.00;61.00;;;;;;5051160;28;20052;-80
2022/09/30 12:08:03;;;;;;;3.30;1.80;;;24.10;69.30;;;;;;5060102;28;20455;-82
2022/09/30 12:10:38;;;;;;;3.90;2.08;;;24.50;64.10;;;;;;5051270;28;20044;-83
2022/09/30 12:13:13;;;;;;;4.15;1.92;;;24.30;65.70;;;;;;5068472;28;20043;-82
2022/09/30 12:15:44;;;;;;;1.83;1.50;;;23.70;60.70;;;;;;5059985;28;20052;-80
2022/09/30 12:18:17;;;;;;;2.35;1.40;;;22.80;67.20;;;;;;5051475;28;20086;-82
2022/09/30 12:20:51;;;;;;;4.68;2.50;;;22.40;69.10;;;;;;5050336;28;20112;-82
2022/09/30 12:23:38;;;;;;;2.90;1.90;;;21.80;65.50;;;;;;5053232;28;20040;-82
2022/09/30 12:26:05;;;;;;;3.83;2.70;;;20.90;66.80;;;;;;5052904;28;20111;-82
2022/09/30 12:31:43;;;;;;;4.18;2.60;;;19.40;86.00;;;;;;5086346;28;20048;-83
2022/09/30 12:34:15;;;;;;;3.35;2.58;;;18.80;92.80;;;;;;5050556;28;21702;-82
2022/09/30 12:36:53;;;;;;;5.57;2.92;;;18.50;94.80;;;;;;5051721;28;20048;-82
2022/09/30 12:39:32;;;;;;;2.88;2.67;;;18.50;96.00;;;;;;5042856;28;20033;-82
2022/09/30 12:42:36;;;;;;;4.95;3.15;;;18.50;97.80;;;;;;5051130;28;20044;-82
2022/09/30 12:45:07;;;;;;;3.92;3.35;;;19.80;92.90;;;;;;5068084;28;20043;-83
2022/09/30 12:47:46;;;;;;;5.50;4.28;;;21.70;88.60;;;;;;5066699;28;20371;-83
2022/09/30 12:50:20;;;;;;;6.93;6.25;;;22.20;75.60;;;;;;5067148;28;20388;-84
2022/09/30 12:52:46;;;;;;;10.07;6.38;;;21.20;75.50;;;;;;5051746;28;20069;-82
2022/09/30 12:55:18;;;;;;;12.95;11.18;;;20.30;84.20;;;;;;5026129;28;20048;-83
2022/09/30 12:57:46;;;;;;;6.57;5.07;;;20.00;90.70;;;;;;5067283;28;20486;-82
2022/09/30 13:00:18;;;;;;;5.20;4.47;;;20.30;90.50;;;;;;5043985;28;20124;-79
2022/09/30 13:02:54;;;;;;;5.03;4.53;;;20.40;84.20;;;;;;5066256;28;20097;-83
2022/09/30 13:05:26;;;;;;;7.28;5.00;;;20.60;83.00;;;;;;5061404;28;20063;-82
2022/09/30 13:08:03;;;;;;;5.40;4.90;;;20.60;84.70;;;;;;5050786;28;20122;-82
2022/09/30 13:10:43;;;;;;;5.82;5.22;;;20.80;76.70;;;;;;5051763;28;20052;-82
2022/09/30 13:13:31;;;;;;;8.00;5.53;;;21.30;79.60;;;;;;5068693;28;20040;-83
2022/09/30 13:16:05;;;;;;;6.53;4.70;;;21.30;73.10;;;;;;5077851;28;20536;-82